Time;durP1;ratioP1;P1;durP2;ratioP2;P2;SDS_P1;SDS_P2;PMS_P1;PMS_P2;Temp;Humidity;BMP_temperature;BMP_pressure;BME280_temperature;BME280_humidity;BME280_pressure;Samples;Min_cycle;Max_cycle;Signal;HPM_P1;HPM_P2
2024/02/29 00:00:35;;;;;;;72.80;23.73;;;;;;;-145.69;70.85;52363.19;5116444;28;20201;-82
2024/02/29 00:03:02;;;;;;;57.97;21.57;;;;;;;-145.69;70.70;52347.34;5116263;28;20209;-80
2024/02/29 00:05:30;;;;;;;69.37;23.13;;;;;;;-145.69;71.10;52361.22;5116318;28;20240;-82
2024/02/29 00:07:56;;;;;;;71.07;22.17;;;;;;;-145.69;70.85;52341.41;5116120;28;20204;-81
2024/02/29 00:10:23;;;;;;;65.33;22.93;;;;;;;-145.69;71.35;52377.06;5115820;28;20197;-81
2024/02/29 00:12:50;;;;;;;68.33;24.67;;;;;;;-145.69;71.82;52371.13;5116105;28;20205;-81
2024/02/29 00:15:17;;;;;;;67.73;23.10;;;;;;;-145.69;72.28;52339.44;5115624;28;20206;-82
2024/02/29 00:17:43;;;;;;;79.57;25.93;;;;;;;-145.69;73.13;52363.19;5115984;27;20670;-82
2024/02/29 00:20:11;;;;;;;76.43;25.77;;;;;;;-145.69;73.81;52347.34;5113724;28;20193;-82
2024/02/29 00:22:39;;;;;;;67.73;24.47;;;;;;;-145.69;72.68;52373.09;5115674;28;20202;-82
2024/02/29 00:25:06;;;;;;;83.87;24.80;;;;;;;-145.69;71.81;52369.13;5115867;28;20205;-82
2024/02/29 00:27:32;;;;;;;72.20;22.90;;;;;;;-145.69;70.75;52333.47;5115599;28;20198;-81
2024/02/29 00:29:59;;;;;;;69.60;22.50;;;;;;;-145.69;70.12;52341.41;5115374;28;20201;-82
2024/02/29 00:32:25;;;;;;;64.47;21.83;;;;;;;-145.69;70.01;52335.47;5115574;28;20286;-79
2024/02/29 00:34:51;;;;;;;61.87;20.30;;;;;;;-145.69;70.33;52355.28;5115260;28;20683;-80
2024/02/29 00:37:18;;;;;;;55.90;20.47;;;;;;;-145.69;70.27;52351.31;5114845;28;20197;-80
2024/02/29 00:39:46;;;;;;;75.87;24.13;;;;;;;-145.69;71.96;52367.16;5115111;28;20552;-80
2024/02/29 00:42:12;;;;;;;72.20;24.73;;;;;;;-145.69;72.81;52357.25;5115007;28;20304;-80
2024/02/29 00:44:39;;;;;;;74.43;23.00;;;;;;;-145.69;72.51;52375.06;5115557;28;20534;-81
2024/02/29 00:47:06;;;;;;;82.83;25.93;;;;;;;-145.69;73.20;52355.28;5115488;28;20201;-80
2024/02/29 00:49:34;;;;;;;79.60;25.17;;;;;;;-145.69;73.70;52345.38;5113652;27;20198;-80
2024/02/29 00:52:01;;;;;;;83.33;25.43;;;;;;;-145.69;72.73;52363.19;5114454;28;20687;-80
2024/02/29 00:54:27;;;;;;;72.67;24.53;;;;;;;-145.69;72.19;52337.44;5115499;28;20206;-81
2024/02/29 00:56:55;;;;;;;87.30;25.23;;;;;;;-145.69;73.01;52339.44;5114914;28;20197;-80
2024/02/29 00:59:22;;;;;;;77.57;26.03;;;;;;;-145.69;72.83;52375.06;5115220;28;20255;-79
2024/02/29 01:01:48;;;;;;;77.73;24.43;;;;;;;-145.69;72.76;52400.81;5115191;28;20197;-82
2024/02/29 01:04:15;;;;;;;85.23;26.07;;;;;;;-145.69;73.30;52337.44;5114874;28;20288;-82
2024/02/29 01:06:41;;;;;;;79.97;25.77;;;;;;;-145.69;73.04;52355.28;5114904;28;20247;-79
2024/02/29 01:09:08;;;;;;;80.07;24.47;;;;;;;-145.69;72.46;52383.00;5115020;27;20202;-80
2024/02/29 01:11:35;;;;;;;72.77;23.57;;;;;;;-145.69;71.89;52388.94;5114653;28;20256;-82
2024/02/29 01:14:03;;;;;;;59.67;21.17;;;;;;;-145.69;71.54;52355.28;5114428;28;20564;-82
2024/02/29 01:16:29;;;;;;;62.40;21.23;;;;;;;-145.69;71.19;52349.31;5114259;28;20193;-81
2024/02/29 01:18:57;;;;;;;55.43;20.80;;;;;;;-145.69;70.83;52345.38;5114093;28;20216;-81
2024/02/29 01:21:23;;;;;;;60.63;21.80;;;;;;;-145.69;71.23;52355.28;5114769;28;20204;-82
2024/02/29 01:23:50;;;;;;;65.57;21.53;;;;;;;-145.69;71.15;52369.13;5114804;28;20202;-80
2024/02/29 01:26:16;;;;;;;61.97;22.03;;;;;;;-145.69;71.20;52371.13;5114633;28;20197;-80
2024/02/29 01:28:43;;;;;;;76.77;24.57;;;;;;;-145.69;72.02;52363.19;5114490;28;20212;-80
2024/02/29 01:31:11;;;;;;;62.30;22.43;;;;;;;-145.69;72.47;52367.16;5114425;28;20278;-80
2024/02/29 01:33:37;;;;;;;64.83;22.47;;;;;;;-145.69;71.71;52363.19;5114593;28;20216;-80
2024/02/29 01:36:04;;;;;;;58.47;19.40;;;;;;;-145.69;71.08;52337.44;5114384;28;20193;-82
2024/02/29 01:38:31;;;;;;;53.93;19.90;;;;;;;-145.69;71.10;52381.00;5124396;27;20679;-82
2024/02/29 01:40:57;;;;;;;58.30;21.00;;;;;;;-145.69;71.02;52347.34;5134825;27;20208;-81
2024/02/29 01:43:23;;;;;;;65.13;21.07;;;;;;;-145.69;71.25;52361.22;5134654;27;20270;-82
2024/02/29 01:46:00;;;;;;;65.37;21.93;;;;;;;-145.69;71.62;52383.00;5132011;27;20201;-81
2024/02/29 01:48:28;;;;;;;60.67;22.00;;;;;;;-145.69;71.70;52345.38;5114249;28;20644;-81
2024/02/29 01:50:55;;;;;;;66.03;22.97;;;;;;;-145.69;72.00;52383.00;5113955;28;20237;-81
2024/02/29 01:53:22;;;;;;;75.33;24.03;;;;;;;-145.69;73.28;52373.09;5114211;28;20228;-81
2024/02/29 01:55:48;;;;;;;65.67;21.17;;;;;;;-145.69;72.33;52373.09;5113355;28;20690;-81
2024/02/29 01:58:15;;;;;;;70.73;23.30;;;;;;;-145.69;72.72;52337.44;5113872;28;20206;-82
2024/02/29 02:00:43;;;;;;;73.13;21.63;;;;;;;-145.69;72.76;52369.13;5113964;27;20525;-81
2024/02/29 02:03:10;;;;;;;65.90;22.90;;;;;;;-145.69;72.99;52375.06;5113746;28;20230;-82
2024/02/29 02:05:38;;;;;;;68.83;23.23;;;;;;;-145.69;72.39;52357.25;5113598;28;20209;-81
2024/02/29 02:08:05;;;;;;;67.97;22.37;;;;;;;-145.69;72.52;52357.25;5114116;27;20729;-82
2024/02/29 02:10:31;;;;;;;68.27;22.57;;;;;;;-145.69;71.78;52369.13;5113650;28;20233;-82
2024/02/29 02:12:58;;;;;;;64.07;22.40;;;;;;;-145.69;71.82;52335.47;5113054;28;20229;-81
2024/02/29 02:15:24;;;;;;;96.57;31.20;;;;;;;-145.69;75.45;52357.25;5112996;28;20433;-81
2024/02/29 02:17:51;;;;;;;76.63;25.37;;;;;;;-145.69;74.04;52361.22;5113439;28;20216;-81
2024/02/29 02:20:19;;;;;;;81.47;24.03;;;;;;;-145.69;74.52;52386.97;5113344;28;20194;-82
2024/02/29 02:22:46;;;;;;;75.40;23.77;;;;;;;-145.69;73.64;52373.09;5113640;28;20190;-79
2024/02/29 02:25:12;;;;;;;78.53;24.97;;;;;;;-145.69;75.02;52379.03;5113465;28;20197;-80
2024/02/29 02:27:39;;;;;;;88.40;27.10;;;;;;;-145.69;74.25;52357.25;5112911;28;20205;-82
2024/02/29 02:30:07;;;;;;;76.63;24.07;;;;;;;-145.69;73.18;52367.16;5113303;28;20225;-82
2024/02/29 02:32:34;;;;;;;76.53;24.23;;;;;;;-145.69;72.58;52371.13;5112737;28;20270;-81
2024/02/29 02:35:00;;;;;;;66.53;22.13;;;;;;;-145.69;72.23;52381.00;5113101;28;20189;-81
2024/02/29 02:37:28;;;;;;;56.90;19.77;;;;;;;-145.69;72.07;52373.09;5112799;28;20197;-80
2024/02/29 02:39:55;;;;;;;60.87;21.07;;;;;;;-145.69;71.94;52371.13;5112743;28;20246;-80
2024/02/29 02:42:21;;;;;;;50.67;19.33;;;;;;;-145.69;71.84;52379.03;5113298;28;20212;-80
2024/02/29 02:44:48;;;;;;;53.33;19.70;;;;;;;-145.69;71.96;52396.84;5113255;28;20210;-80
2024/02/29 02:47:14;;;;;;;53.93;19.10;;;;;;;-145.69;72.07;52394.88;5113157;28;20663;-81
2024/02/29 02:49:41;;;;;;;55.50;18.67;;;;;;;-145.69;72.44;52371.13;5113306;28;20220;-80
2024/02/29 02:52:08;;;;;;;61.30;21.77;;;;;;;-145.69;74.26;52367.16;5112253;28;20285;-80
2024/02/29 02:54:36;;;;;;;61.70;20.73;;;;;;;-145.69;74.04;52359.22;5113026;28;20209;-81
2024/02/29 02:57:02;;;;;;;52.80;18.57;;;;;;;-145.69;73.98;52377.06;5112519;28;20197;-80
2024/02/29 02:59:29;;;;;;;57.23;19.60;;;;;;;-145.69;74.14;52373.09;5113132;28;20204;-80
2024/02/29 03:01:55;;;;;;;59.97;20.20;;;;;;;-145.69;74.09;52355.28;5112720;28;20640;-81
2024/02/29 03:04:22;;;;;;;54.43;19.60;;;;;;;-145.69;74.10;52369.13;5112949;28;20205;-81
2024/02/29 03:06:48;;;;;;;56.93;20.00;;;;;;;-145.69;73.57;52377.06;5112564;28;20197;-80
2024/02/29 03:09:14;;;;;;;62.50;20.27;;;;;;;-145.69;74.15;52365.16;5126131;28;20192;-82
2024/02/29 03:11:43;;;;;;;53.27;20.03;;;;;;;-145.69;74.12;52369.13;5133355;28;20552;-81
2024/02/29 03:14:10;;;;;;;48.77;19.07;;;;;;;-145.69;73.43;52384.97;5112789;28;20248;-81
2024/02/29 03:16:36;;;;;;;53.47;18.83;;;;;;;-145.69;73.09;52381.00;5112795;28;20721;-82
2024/02/29 03:19:04;;;;;;;58.63;19.93;;;;;;;-145.69;73.88;52353.28;5112680;28;20197;-81
2024/02/29 03:21:31;;;;;;;49.23;19.00;;;;;;;-145.69;74.38;52386.97;5116759;28;20203;-81
2024/02/29 03:23:57;;;;;;;52.20;17.37;;;;;;;-145.69;73.62;52359.22;5116588;28;20204;-80
2024/02/29 03:26:24;;;;;;;55.03;19.03;;;;;;;-145.69;73.82;52349.31;5116983;28;20213;-81
2024/02/29 03:28:51;;;;;;;50.60;17.87;;;;;;;-145.69;73.09;52398.84;5116446;28;20197;-82
2024/02/29 03:31:18;;;;;;;46.60;16.47;;;;;;;-145.69;72.84;52396.84;5116536;28;20202;-80
2024/02/29 03:33:44;;;;;;;41.63;16.33;;;;;;;-145.69;72.89;52390.91;5116801;28;20611;-80
2024/02/29 03:36:11;;;;;;;43.90;15.63;;;;;;;-145.69;72.19;52392.91;5116411;28;20679;-81
2024/02/29 03:38:37;;;;;;;39.40;14.67;;;;;;;-145.69;72.13;52379.03;5123697;27;20197;-81
2024/02/29 03:41:06;;;;;;;38.70;14.93;;;;;;;-145.69;72.61;52394.88;5137408;27;20228;-81
2024/02/29 03:43:33;;;;;;;41.23;15.03;;;;;;;-145.69;73.12;52367.16;5137159;27;20307;-81
2024/02/29 03:46:01;;;;;;;49.97;17.77;;;;;;;-145.69;74.32;52377.06;5136653;27;20366;-82
2024/02/29 03:48:27;;;;;;;49.17;18.87;;;;;;;-145.69;74.09;52373.09;5136862;27;20201;-82
2024/02/29 03:50:54;;;;;;;56.43;19.37;;;;;;;-145.69;75.17;52388.94;5136698;27;20233;-82
2024/02/29 03:53:20;;;;;;;63.70;20.60;;;;;;;-145.69;76.77;52410.72;5126522;27;20278;-82
2024/02/29 03:55:48;;;;;;;60.30;20.80;;;;;;;-145.69;76.61;52341.41;5116101;28;20197;-81
2024/02/29 03:58:15;;;;;;;60.33;19.60;;;;;;;-145.69;75.30;52392.91;5115313;28;20288;-81
2024/02/29 04:00:42;;;;;;;65.50;20.37;;;;;;;-145.69;74.54;52373.09;5116235;28;20208;-81
2024/02/29 04:03:10;;;;;;;57.13;19.27;;;;;;;-145.69;73.89;52373.09;5115682;28;20228;-81
2024/02/29 04:05:37;;;;;;;67.23;20.70;;;;;;;-145.69;73.99;52349.31;5115946;28;20201;-81
2024/02/29 04:08:04;;;;;;;65.00;20.97;;;;;;;-145.69;74.41;52408.75;5118237;27;20192;-80
2024/02/29 04:10:31;;;;;;;57.43;19.17;;;;;;;-145.69;73.38;52339.44;5136894;27;20205;-81
2024/02/29 04:12:58;;;;;;;55.57;18.80;;;;;;;-145.69;73.83;52381.00;5136377;27;20274;-81
2024/02/29 04:15:25;;;;;;;53.20;18.47;;;;;;;-145.69;73.67;52384.97;5117221;27;20209;-80
2024/02/29 04:17:51;;;;;;;51.43;17.97;;;;;;;-145.69;73.57;52383.00;5115803;28;20196;-81
2024/02/29 04:20:19;;;;;;;58.30;19.40;;;;;;;-145.69;73.56;52381.00;5115886;28;20254;-80
2024/02/29 04:22:46;;;;;;;47.07;17.83;;;;;;;-145.69;73.84;52369.13;5115490;28;20205;-81
2024/02/29 04:25:12;;;;;;;49.53;18.13;;;;;;;-145.69;74.91;52345.38;5115636;28;20656;-80
2024/02/29 04:27:39;;;;;;;53.67;19.47;;;;;;;-145.69;74.54;52392.91;5115665;28;20217;-81
2024/02/29 04:30:06;;;;;;;56.17;18.83;;;;;;;-145.69;74.44;52369.13;5115357;28;20204;-81
2024/02/29 04:32:33;;;;;;;49.30;17.00;;;;;;;-145.69;74.77;52402.78;5114741;28;20274;-81
2024/02/29 04:34:59;;;;;;;59.90;19.50;;;;;;;-145.69;74.51;52384.97;5115089;28;20647;-81
2024/02/29 04:37:27;;;;;;;58.30;18.17;;;;;;;-145.69;74.82;52371.13;5115190;28;20555;-80
2024/02/29 04:39:54;;;;;;;49.33;17.27;;;;;;;-145.69;74.51;52388.94;5114795;27;20679;-81
2024/02/29 04:42:20;;;;;;;57.83;18.97;;;;;;;-145.69;74.51;52381.00;5115380;28;20598;-81
2024/02/29 04:44:47;;;;;;;53.10;17.13;;;;;;;-145.69;74.56;52388.94;5114880;28;20197;-81
2024/02/29 04:47:13;;;;;;;50.10;17.63;;;;;;;-145.69;75.16;52388.94;5115370;28;20193;-81
2024/02/29 04:49:40;;;;;;;46.07;16.83;;;;;;;-145.69;74.21;52384.97;5115303;28;20560;-82
2024/02/29 04:52:06;;;;;;;55.67;18.57;;;;;;;-145.69;74.36;52412.69;5115077;28;20225;-82
2024/02/29 04:54:34;;;;;;;51.33;16.73;;;;;;;-145.69;74.12;52394.88;5115429;28;20202;-81
2024/02/29 04:57:00;;;;;;;49.00;17.27;;;;;;;-145.69;73.68;52369.13;5114519;28;20209;-82
2024/02/29 04:59:27;;;;;;;49.30;15.20;;;;;;;-145.69;73.08;52361.22;5115204;28;20198;-82
2024/02/29 05:01:54;;;;;;;46.10;16.03;;;;;;;-145.69;73.12;52381.00;5114480;28;20209;-82
2024/02/29 05:04:20;;;;;;;45.23;15.77;;;;;;;-145.69;73.89;52383.00;5115206;28;20201;-82
2024/02/29 05:06:47;;;;;;;40.50;14.90;;;;;;;-145.69;74.23;52377.06;5114715;28;20189;-81
2024/02/29 05:09:13;;;;;;;41.33;14.70;;;;;;;-145.69;74.47;52357.25;5125029;27;20208;-79
2024/02/29 05:11:41;;;;;;;41.80;15.00;;;;;;;-145.69;74.34;52386.97;5119765;27;20243;-81
2024/02/29 05:14:09;;;;;;;45.73;15.43;;;;;;;-145.69;74.88;52383.00;5114670;28;20229;-81
2024/02/29 05:16:35;;;;;;;40.93;14.77;;;;;;;-145.69;74.30;52373.09;5114817;28;20201;-82
2024/02/29 05:19:02;;;;;;;38.93;14.30;;;;;;;-145.69;74.07;52408.75;5114375;28;20251;-80
2024/02/29 05:21:28;;;;;;;41.30;14.50;;;;;;;-145.69;74.41;52361.22;5114640;28;20233;-80
2024/02/29 05:23:55;;;;;;;35.27;13.50;;;;;;;-145.69;74.34;52398.84;5114590;28;20652;-80
2024/02/29 05:26:21;;;;;;;41.00;15.13;;;;;;;-145.69;74.25;52371.13;5114766;28;20619;-80
2024/02/29 05:28:49;;;;;;;40.33;13.17;;;;;;;-145.69;74.71;52388.94;5114476;28;20201;-80
2024/02/29 05:31:16;;;;;;;38.10;13.53;;;;;;;-145.69;74.58;52388.94;5114471;28;20201;-80
2024/02/29 05:33:42;;;;;;;37.00;13.40;;;;;;;-145.69;74.44;52384.97;5114315;28;20225;-81
2024/02/29 05:36:10;;;;;;;41.10;14.83;;;;;;;-145.69;75.37;52404.78;5114009;28;20197;-80
2024/02/29 05:38:36;;;;;;;44.53;14.97;;;;;;;-145.69;74.96;52377.06;5114625;28;20197;-80
2024/02/29 05:41:04;;;;;;;43.07;14.17;;;;;;;-145.69;74.24;52361.22;5111994;28;20599;-82
2024/02/29 05:43:30;;;;;;;39.10;13.50;;;;;;;-145.69;74.14;52408.75;5111937;28;20204;-80
2024/02/29 05:45:58;;;;;;;38.93;14.97;;;;;;;-145.69;73.94;52392.91;5114119;28;20204;-82
2024/02/29 05:48:24;;;;;;;34.67;12.97;;;;;;;-145.69;73.95;52390.91;5114126;28;20212;-80
2024/02/29 05:50:51;;;;;;;36.63;13.73;;;;;;;-145.69;74.56;52404.78;5114017;28;20229;-80
2024/02/29 05:53:17;;;;;;;36.70;13.37;;;;;;;-145.69;74.56;52404.78;5114001;28;20224;-80
2024/02/29 05:55:44;;;;;;;39.40;14.67;;;;;;;-145.69;74.29;52363.19;5113867;28;20270;-79
2024/02/29 05:58:10;;;;;;;39.10;14.40;;;;;;;-145.69;74.80;52369.13;5113282;28;20443;-80
2024/02/29 06:00:36;;;;;;;40.33;13.50;;;;;;;-145.69;74.88;52412.69;5114052;28;20200;-79
2024/02/29 06:03:05;;;;;;;38.70;14.17;;;;;;;-145.69;74.73;52353.28;5113711;28;20572;-79
2024/02/29 06:05:31;;;;;;;39.87;13.40;;;;;;;-145.69;74.59;52363.19;5113881;28;20193;-79
2024/02/29 06:07:58;;;;;;;35.93;12.73;;;;;;;-145.69;74.15;52353.28;5113369;28;20200;-80
2024/02/29 06:10:24;;;;;;;38.20;13.27;;;;;;;-145.69;74.27;52388.94;5113496;28;20232;-79
2024/02/29 06:12:50;;;;;;;38.23;13.67;;;;;;;-145.69;74.68;52365.16;5113119;28;20217;-79
2024/02/29 06:15:18;;;;;;;36.50;14.13;;;;;;;-145.69;74.65;52390.91;5113462;28;20205;-79
2024/02/29 06:17:45;;;;;;;39.87;14.10;;;;;;;-145.69;75.18;52400.81;5113509;28;20197;-81
2024/02/29 06:20:13;;;;;;;38.30;13.47;;;;;;;-145.69;75.14;52392.91;5113308;28;20201;-80
2024/02/29 06:22:40;;;;;;;38.90;13.20;;;;;;;-145.69;75.30;52377.06;5113435;28;20214;-81
2024/02/29 06:25:09;;;;;;;41.50;14.43;;;;;;;-145.69;75.62;52388.94;5113087;28;20197;-82
2024/02/29 06:27:35;;;;;;;42.80;14.47;;;;;;;-145.69;75.77;52383.00;5113703;28;20198;-81
2024/02/29 06:30:04;;;;;;;36.07;13.80;;;;;;;-145.69;75.77;52369.13;5112799;28;20280;-81
2024/02/29 06:32:30;;;;;;;42.93;14.67;;;;;;;-145.69;75.18;52424.59;5112788;28;20248;-81
2024/02/29 06:34:57;;;;;;;39.93;14.20;;;;;;;-145.69;75.62;52369.13;5113121;28;20198;-81
2024/02/29 06:37:24;;;;;;;47.60;14.67;;;;;;;-145.69;75.81;52402.78;5113012;28;20206;-80
2024/02/29 06:39:51;;;;;;;37.27;14.10;;;;;;;-145.69;75.54;52398.84;5113352;28;20208;-81
2024/02/29 06:42:17;;;;;;;41.20;13.77;;;;;;;-145.69;75.67;52373.09;5113425;27;20201;-81
2024/02/29 06:44:44;;;;;;;43.57;14.97;;;;;;;-145.69;75.60;52375.06;5113014;28;20197;-81
2024/02/29 06:47:10;;;;;;;38.57;13.23;;;;;;;-145.69;75.79;52373.09;5113130;28;20201;-80
2024/02/29 06:49:37;;;;;;;41.40;14.43;;;;;;;-145.69;75.86;52377.06;5112822;28;20205;-81
2024/02/29 06:52:03;;;;;;;41.90;14.83;;;;;;;-145.69;75.52;52383.00;5112724;28;20233;-80
2024/02/29 06:54:31;;;;;;;48.63;14.60;;;;;;;-145.69;75.77;52390.91;5112780;28;20241;-80
2024/02/29 06:56:58;;;;;;;46.00;14.80;;;;;;;-145.69;75.67;52390.91;5112863;28;20198;-80
2024/02/29 06:59:25;;;;;;;37.10;13.80;;;;;;;-145.69;75.39;52412.69;5112903;28;20205;-80
2024/02/29 07:01:51;;;;;;;47.17;16.20;;;;;;;-145.69;75.89;52377.06;5112712;28;20233;-80
2024/02/29 07:04:18;;;;;;;41.93;13.83;;;;;;;-145.69;75.92;52363.19;5112499;28;20242;-80
2024/02/29 07:06:44;;;;;;;43.63;15.37;;;;;;;-145.69;75.49;52412.69;5112386;28;20205;-80
2024/02/29 07:09:11;;;;;;;36.83;14.20;;;;;;;-145.69;75.58;52388.94;5112153;28;20678;-80
2024/02/29 07:11:40;;;;;;;39.60;12.97;;;;;;;-145.69;75.64;52373.09;5123401;28;20200;-80
2024/02/29 07:14:07;;;;;;;37.10;14.67;;;;;;;-145.69;75.67;52400.81;5133352;28;20251;-80
2024/02/29 07:16:35;;;;;;;44.70;14.47;;;;;;;-145.69;76.09;52396.84;5133513;28;20208;-81
2024/02/29 07:19:02;;;;;;;44.17;15.20;;;;;;;-145.69;76.17;52351.31;5133346;28;20208;-82
2024/02/29 07:21:28;;;;;;;41.30;15.07;;;;;;;-145.69;75.70;52408.75;5132589;28;20204;-79
2024/02/29 07:23:55;;;;;;;46.90;14.67;;;;;;;-145.69;76.04;52369.13;5121715;28;20193;-81
2024/02/29 07:26:21;;;;;;;46.00;14.97;;;;;;;-145.69;76.05;52359.22;5112407;28;20197;-80
2024/02/29 07:28:50;;;;;;;36.53;14.27;;;;;;;-145.69;76.04;52400.81;5112770;28;20197;-80
2024/02/29 07:31:19;;;;;;;45.90;16.07;;;;;;;-145.69;76.36;52375.06;5112135;28;20285;-80
2024/02/29 07:33:46;;;;;;;48.93;16.77;;;;;;;-145.69;76.39;52388.94;5112365;28;20221;-80
2024/02/29 07:36:12;;;;;;;41.63;16.73;;;;;;;-145.69;76.39;52377.06;5112452;28;20292;-81
2024/02/29 07:38:39;;;;;;;42.07;16.33;;;;;;;-145.69;76.17;52333.47;5112743;28;20204;-80
2024/02/29 07:41:05;;;;;;;45.63;16.03;;;;;;;-145.69;76.39;52373.09;5112372;28;20197;-82
2024/02/29 07:43:32;;;;;;;45.30;15.83;;;;;;;-145.69;76.43;52379.03;5112406;28;20204;-81
2024/02/29 07:46:00;;;;;;;46.60;16.03;;;;;;;-145.69;76.68;52375.06;5112457;28;20197;-82
2024/02/29 07:48:29;;;;;;;44.57;16.33;;;;;;;-145.69;76.67;52361.22;5112216;28;20229;-81
2024/02/29 07:50:56;;;;;;;45.77;15.97;;;;;;;-145.69;76.28;52392.91;5112186;28;20225;-81
2024/02/29 07:53:22;;;;;;;45.50;16.67;;;;;;;-145.69;76.54;52363.19;5112532;28;20225;-82
2024/02/29 07:55:48;;;;;;;49.00;17.67;;;;;;;-145.69;76.68;52361.22;5112708;28;20206;-81
2024/02/29 07:58:15;;;;;;;54.20;18.60;;;;;;;-145.69;76.81;52375.06;5111924;28;20186;-81
2024/02/29 08:00:41;;;;;;;54.37;17.67;;;;;;;-145.69;76.70;52373.09;5111864;28;20200;-80
2024/02/29 08:03:09;;;;;;;59.43;17.73;;;;;;;-145.69;76.65;52359.22;5112264;28;20197;-81
2024/02/29 08:05:38;;;;;;;48.60;17.00;;;;;;;-145.69;76.60;52383.00;5112446;28;20321;-81
2024/02/29 08:08:04;;;;;;;51.67;16.53;;;;;;;-145.69;76.41;52351.31;5115481;28;20208;-81
2024/02/29 08:10:31;;;;;;;57.07;18.07;;;;;;;-145.69;76.55;52384.97;5116301;27;20223;-80
2024/02/29 08:12:57;;;;;;;48.80;17.77;;;;;;;-145.69;76.16;52365.16;5115800;28;20660;-80
2024/02/29 08:15:24;;;;;;;55.03;18.30;;;;;;;-145.69;76.41;52349.31;5115946;28;20201;-81
2024/02/29 08:17:50;;;;;;;52.33;19.47;;;;;;;-145.69;75.74;52355.28;5116089;28;20288;-81
2024/02/29 08:20:20;;;;;;;53.93;19.03;;;;;;;-145.69;76.13;52353.28;5115725;28;20198;-82
2024/02/29 08:22:47;;;;;;;59.87;18.77;;;;;;;-145.69;76.54;52369.13;5115605;28;20202;-82
2024/02/29 08:25:14;;;;;;;61.13;19.33;;;;;;;-145.69;76.39;52353.28;5115478;28;20212;-81
2024/02/29 08:27:41;;;;;;;53.07;18.07;;;;;;;-145.69;76.13;52333.47;5115637;28;20197;-81
2024/02/29 08:30:10;;;;;;;53.20;19.10;;;;;;;-145.69;76.18;52321.59;5115538;28;20197;-81
2024/02/29 08:32:36;;;;;;;60.07;19.30;;;;;;;-145.69;76.58;52343.38;5095485;28;20277;-81
2024/02/29 08:35:03;;;;;;;54.57;17.90;;;;;;;-145.69;76.73;52329.53;5095193;28;20816;-81
2024/02/29 08:37:31;;;;;;;40.93;15.83;;;;;;;-145.69;76.54;52341.41;5094916;28;20296;-81
2024/02/29 08:39:58;;;;;;;49.30;17.77;;;;;;;-145.69;76.39;52357.25;5113954;28;20599;-81
2024/02/29 08:42:24;;;;;;;48.37;17.77;;;;;;;-145.69;76.82;52371.13;5116505;28;20193;-81
2024/02/29 08:44:51;;;;;;;50.07;18.37;;;;;;;-145.69;76.36;52333.47;5116937;28;20209;-82
2024/02/29 08:47:18;;;;;;;49.53;17.27;;;;;;;-145.69;76.05;52341.41;5116659;28;20204;-82
2024/02/29 08:49:48;;;;;;;46.13;16.70;;;;;;;-145.69;75.45;52357.25;5116811;28;20202;-81
2024/02/29 08:52:15;;;;;;;43.80;16.83;;;;;;;-145.69;76.88;52337.44;5116385;28;20316;-82
2024/02/29 08:54:42;;;;;;;41.10;15.87;;;;;;;-145.69;74.82;52377.06;5117210;28;20221;-82
2024/02/29 08:57:09;;;;;;;38.37;15.10;;;;;;;-145.69;76.21;52365.16;5120281;28;20197;-82
2024/02/29 08:59:35;;;;;;;36.17;15.13;;;;;;;-145.69;75.22;52329.53;5118747;28;20198;-81
2024/02/29 09:02:05;;;;;;;42.07;15.37;;;;;;;-145.69;75.80;52301.81;5116691;28;20552;-82
2024/02/29 09:04:32;;;;;;;32.23;13.90;;;;;;;-145.69;73.73;52307.75;5114482;27;20251;-82
2024/02/29 09:07:00;;;;;;;35.47;14.33;;;;;;;-145.69;75.57;52317.66;5116880;28;20551;-81
2024/02/29 09:09:29;;;;;;;28.93;13.03;;;;;;;-145.69;73.09;52341.41;5117021;28;20198;-81
2024/02/29 09:12:00;;;;;;;29.03;12.93;;;;;;;-145.69;73.88;52327.53;5128997;27;20225;-82
2024/02/29 09:14:26;;;;;;;31.20;12.73;;;;;;;-145.69;70.50;52305.75;5117215;27;20221;-81
2024/02/29 09:16:55;;;;;;;30.03;11.90;;;;;;;-145.69;72.31;52301.81;5117232;28;20206;-81
2024/02/29 09:19:21;;;;;;;27.27;11.67;;;;;;;-145.69;69.64;52301.81;5117339;28;20197;-81
2024/02/29 09:21:48;;;;;;;22.40;10.63;;;;;;;-145.69;66.91;52341.41;5116379;28;20256;-82
2024/02/29 09:24:14;;;;;;;24.00;10.70;;;;;;;-145.69;70.08;52280.00;5115364;28;20246;-81
2024/02/29 09:26:40;;;;;;;21.67;9.30;;;;;;;-145.69;68.92;52299.81;5114592;28;20197;-81
2024/02/29 09:29:08;;;;;;;19.57;9.30;;;;;;;-145.69;68.98;52295.84;5114824;28;20206;-81
2024/02/29 09:31:35;;;;;;;23.90;10.87;;;;;;;-145.69;69.81;52297.84;5114504;27;20204;-82
2024/02/29 09:34:07;;;;;;;24.40;10.07;;;;;;;-145.69;69.89;52278.03;5114017;28;20217;-82
2024/02/29 09:36:34;;;;;;;20.80;9.80;;;;;;;-145.69;66.22;52303.78;5114598;28;20647;-81
2024/02/29 09:39:04;;;;;;;19.33;9.47;;;;;;;-145.69;69.69;52305.75;5114383;27;20208;-81
2024/02/29 09:41:31;;;;;;;17.50;8.77;;;;;;;-145.69;70.38;52335.47;5121376;27;20197;-81
2024/02/29 09:44:02;;;;;;;18.37;8.43;;;;;;;-145.69;70.29;52301.81;5134982;27;20205;-81
2024/02/29 09:46:30;;;;;;;22.77;9.60;;;;;;;-145.69;68.03;52325.56;5135006;27;20204;-81
2024/02/29 09:48:57;;;;;;;22.20;10.10;;;;;;;-145.69;68.15;52321.59;5135287;27;20231;-83
2024/02/29 09:51:26;;;;;;;23.67;10.87;;;;;;;-145.69;66.18;52313.69;5135076;27;20233;-81
2024/02/29 09:53:54;;;;;;;23.60;9.90;;;;;;;-145.69;68.37;52278.03;5130278;27;20695;-82
2024/02/29 09:56:23;;;;;;;25.40;10.40;;;;;;;-145.69;67.03;52299.81;5114341;28;20202;-83
2024/02/29 09:58:50;;;;;;;24.70;10.37;;;;;;;-145.69;66.13;52283.97;5114066;28;20229;-81
2024/02/29 10:01:16;;;;;;;19.30;9.70;;;;;;;-145.69;66.77;52333.47;5113935;28;20204;-81
2024/02/29 10:03:46;;;;;;;19.53;10.30;;;;;;;-145.69;66.63;52323.59;5113740;28;20197;-81
2024/02/29 10:06:12;;;;;;;18.57;9.40;;;;;;;-145.69;66.26;52305.75;5113871;28;20193;-81
2024/02/29 10:08:39;;;;;;;22.40;9.70;;;;;;;-145.69;66.86;52266.16;5113762;28;20202;-82
2024/02/29 10:11:07;;;;;;;23.33;9.97;;;;;;;-145.69;68.10;52331.50;5112456;28;20201;-83
2024/02/29 10:13:38;;;;;;;20.30;9.90;;;;;;;-145.69;65.46;52272.09;5113528;28;20204;-82
2024/02/29 10:16:07;;;;;;;20.80;9.30;;;;;;;-145.69;67.60;52266.16;5113250;28;20216;-81
2024/02/29 10:18:33;;;;;;;23.07;9.83;;;;;;;-145.69;65.13;52270.13;5113766;28;20288;-82
2024/02/29 10:21:02;;;;;;;21.10;9.40;;;;;;;-145.69;63.64;52264.16;5113468;28;20660;-81
2024/02/29 10:23:29;;;;;;;16.60;9.30;;;;;;;-145.69;66.01;52256.25;5112259;28;20224;-81
2024/02/29 10:25:56;;;;;;;16.40;8.20;;;;;;;-145.69;64.41;52262.19;5111816;28;20210;-82
2024/02/29 10:28:22;;;;;;;17.33;8.35;;;;;;;-145.69;62.71;52238.44;5111760;28;20200;-82
2024/02/29 10:30:54;;;;;;;18.73;8.68;;;;;;;-145.69;57.92;52234.47;5112025;28;20719;-82
2024/02/29 10:33:21;;;;;;;16.55;8.27;;;;;;;-145.69;54.27;52256.25;5112405;28;20548;-82
2024/02/29 10:35:51;;;;;;;17.25;8.35;;;;;;;-145.69;51.80;52258.22;5113107;28;20225;-82
2024/02/29 10:38:21;;;;;;;16.77;8.50;;;;;;;-145.69;49.98;52242.38;5113354;28;20277;-82
2024/02/29 10:40:50;;;;;;;13.45;6.85;;;;;;;-145.69;51.02;52246.34;5113233;28;20557;-83
2024/02/29 10:43:19;;;;;;;14.90;7.95;;;;;;;-145.69;46.64;52226.53;5133687;27;20261;-81
2024/02/29 10:45:46;;;;;;;18.17;8.60;;;;;;;;;;5133879;27;20254;-83
2024/02/29 10:48:17;;;;;;;20.45;8.38;;;;;;;-145.69;48.41;52220.59;5133863;27;20256;-82
2024/02/29 10:50:53;;;;;;;18.45;8.18;;;;;;;-145.69;48.36;52200.81;5133713;27;20200;-82
2024/02/29 10:53:31;;;;;;;27.73;11.35;;;;;;;-145.69;45.93;52224.56;5133744;27;20199;-82
2024/02/29 10:56:03;;;;;;;28.63;10.70;;;;;;;-145.69;45.73;52216.66;5133562;27;20225;-82
2024/02/29 10:58:36;;;;;;;20.48;9.43;;;;;;;-145.69;45.22;52206.75;5125714;27;20201;-82
2024/02/29 11:01:03;;;;;;;23.25;10.73;;;;;;;-145.69;44.30;52175.06;5112401;28;20217;-82